Al Taji, Iraq

7:19 AM AST on November 27, 2014 (GMT +0300)
Baghdad | Change Station
CLOSE
Current Station
Airport
Location: Baghdad,
Elevation: 112 ft
Nearby Weather Stations

Elev 112 ft 33.25 °N, 44.23 °E | Updated 24 minutes ago

Partly Cloudy
Partly Cloudy
54 °F
Feels Like 54 °F
N
7
Wind Variable Wind from ESE

Today
High -- | Low -- °F
--% Chance of Precip.
Yesterday
High -- | Low -- °F
Precip. -- in
6:45 AM 4:55 PM
Waxing Crescent, 25% visible
Pressure 30.03 in
Visibility 1.5 miles
Clouds Few 14000 ft
Dew Point 50 °F
Humidity 88%
Rainfall 0.02 in
Snow Depth Not available.
UV 0 out of 12
Pollen Not available.
Air Quality Not available.
Flu Activity Not available.
METAR KQTZ 270355Z 12006KT 2400 BR FEW140 12/10 A3003 RMK SLP169 WND/ALSTG/SLP ESTMD

More Conditions Fewer Conditions

Pressure 30.03 in
Visibility 1.5 miles
Clouds Few 14000 ft
Dew Point 50 °F
Humidity 88%
Rainfall 0.02 in
Snow Depth Not available.
UV 0 out of 12
Pollen Not available.
Air Quality Not available.
Flu Activity Not available.
METAR KQTZ 270355Z 12006KT 2400 BR FEW140 12/10 A3003 RMK SLP169 WND/ALSTG/SLP ESTMD

More Conditions Fewer Conditions

10-Day Weather Forecast

Almanac

Astronomy

Nov. 27, 2014 Rise Set
Actual Time
Civil Twilight
Nautical Twilight
Astronomical Twilight
Moon
Length of Visible Light
Length of Day
Tomorrow will be .
, % of the Moon is Illuminated

Today's Extremes

Country Highs Country Lows

Community

WunderPhotos

Upload Photos

1,773,959 photos uploaded!

WunderBlogs® & News

Nearby

Air Quality

  Air Quality AQ Index Pollutant
Not available.

Snow Depth

Station Depth Elevation

Earthquake Activity

City Distance Mag. Time & Date
Minimum magnitude displayed is 2.5.

Coastal Water Temperatures

Place Temperature

Nearby Weather Stations